Time;durP1;ratioP1;P1;durP2;ratioP2;P2;SDS_P1;SDS_P2;PMS_P1;PMS_P2;Temp;Humidity;BMP_temperature;BMP_pressure;BME280_temperature;BME280_humidity;BME280_pressure;Samples;Min_cycle;Max_cycle;Signal;HPM_P1;HPM_P2
2023/04/17 00:01:06;;;;;;;0.30;0.30;;;;;;;11.84;67.23;102773.28;5098807;28;20019;-82
2023/04/17 00:03:32;;;;;;;0.20;0.20;;;;;;;11.79;67.18;102775.91;5101205;28;20062;-82
2023/04/17 00:05:58;;;;;;;0.50;0.50;;;;;;;11.78;67.06;102773.25;5089952;28;20034;-81
2023/04/17 00:08:25;;;;;;;0.10;0.10;;;;;;;11.78;67.05;102774.13;5093815;28;20032;-82
2023/04/17 00:10:51;;;;;;;0.10;0.10;;;;;;;11.77;66.95;102776.78;5097314;28;20063;-82
2023/04/17 00:13:17;;;;;;;0.40;0.40;;;;;;;11.76;67.13;102780.31;5099480;28;20508;-82
2023/04/17 00:15:43;;;;;;;0.85;0.85;;;;;;;11.76;67.38;102775.00;5098431;28;20032;-82
2023/04/17 00:18:12;;;;;;;0.10;0.10;;;;;;;11.75;66.82;102778.53;5095268;28;20020;-81
2023/04/17 00:20:38;;;;;;;0.73;0.73;;;;;;;11.66;67.11;102779.34;5085836;28;20032;-82
2023/04/17 00:23:04;;;;;;;0.20;0.20;;;;;;;11.70;66.70;102774.94;5098143;28;20439;-81
2023/04/17 00:25:31;;;;;;;0.93;0.93;;;;;;;11.64;67.70;102774.03;5102034;28;20020;-82
2023/04/17 00:27:57;;;;;;;0.10;0.10;;;;;;;11.64;67.29;102774.03;5097668;28;20036;-82
2023/04/17 00:30:23;;;;;;;1.10;0.98;;;;;;;11.66;67.01;102768.72;5096053;28;20442;-82
2023/04/17 00:32:49;;;;;;;2.72;0.85;;;;;;;11.67;67.51;102770.50;5100918;28;20024;-82
2023/04/17 00:35:15;;;;;;;0.40;0.40;;;;;;;11.65;66.90;102778.47;5093688;28;20028;-81
2023/04/17 00:37:41;;;;;;;0.30;0.30;;;;;;;11.63;67.00;102774.91;5094070;28;20025;-82
2023/04/17 00:40:08;;;;;;;0.28;0.28;;;;;;;11.66;66.91;102771.38;5085827;28;20097;-82
2023/04/17 00:42:34;;;;;;;0.55;0.55;;;;;;;11.64;67.08;102776.69;5083526;28;20078;-82
2023/04/17 00:45:00;;;;;;;0.55;0.55;;;;;;;11.62;67.37;102772.25;5097521;28;20024;-82
2023/04/17 00:47:27;;;;;;;0.10;0.10;;;;;;;11.63;67.04;102771.38;5093697;28;20028;-82
2023/04/17 00:49:53;;;;;;;0.75;0.75;;;;;;;11.58;67.02;102771.34;5078887;28;20016;-83
2023/04/17 00:52:28;;;;;;;0.10;0.10;;;;;;;11.58;67.42;102762.50;5082470;28;20024;-83
2023/04/17 00:54:55;;;;;;;0.20;0.20;;;;;;;11.51;67.46;102764.22;5086896;28;20059;-82
2023/04/17 00:57:22;;;;;;;0.22;0.22;;;;;;;11.47;67.05;102757.13;5078755;28;20016;-83
2023/04/17 00:59:49;;;;;;;0.95;0.55;;;;;;;11.45;67.15;102764.16;5077491;28;20036;-82
2023/04/17 01:02:16;;;;;;;1.15;0.75;;;;;;;11.33;67.80;102765.84;5083652;28;20047;-82
2023/04/17 01:04:42;;;;;;;0.25;0.25;;;;;;;11.29;67.51;102772.03;5086771;28;20401;-82
2023/04/17 01:07:09;;;;;;;0.40;0.40;;;;;;;11.26;67.55;102765.81;5088325;28;20027;-84
2023/04/17 01:09:35;;;;;;;1.27;1.17;;;;;;;11.27;67.44;102770.22;5102339;28;20134;-83
2023/04/17 01:12:18;;;;;;;0.20;0.20;;;;;;;11.21;67.81;102770.19;5096015;28;20508;-83
2023/04/17 01:14:44;;;;;;;0.10;0.10;;;;;;;11.12;67.99;102776.31;5086388;28;20037;-83
2023/04/17 01:17:14;;;;;;;0.90;0.90;;;;;;;11.07;68.50;102778.03;5078737;28;20080;-82
2023/04/17 01:19:40;;;;;;;0.10;0.10;;;;;;;11.11;68.14;102775.41;5097031;28;20031;-83
2023/04/17 01:22:07;;;;;;;0.20;0.20;;;;;;;11.15;68.05;102778.97;5087462;28;20068;-82
2023/04/17 01:24:33;;;;;;;0.57;0.57;;;;;;;11.14;68.37;102779.84;5078755;28;20035;-81
2023/04/17 01:26:59;;;;;;;0.10;0.10;;;;;;;11.15;68.40;102776.31;5092027;28;20051;-83
2023/04/17 01:29:25;;;;;;;0.35;0.35;;;;;;;11.20;67.76;102785.19;5079326;28;20027;-82
2023/04/17 01:31:52;;;;;;;0.20;0.20;;;;;;;11.21;68.36;102776.38;5083674;28;20067;-84
2023/04/17 01:34:18;;;;;;;0.60;0.57;;;;;;;11.20;68.24;102779.00;5080974;28;20073;-83
2023/04/17 01:36:44;;;;;;;0.70;0.70;;;;;;;11.20;68.23;102777.25;5082414;28;20509;-83
2023/04/17 01:39:10;;;;;;;0.20;0.20;;;;;;;11.24;68.30;102775.50;5087916;28;20036;-82
2023/04/17 01:41:36;;;;;;;0.40;0.40;;;;;;;11.23;68.00;102774.63;5095310;28;20027;-83
2023/04/17 01:44:02;;;;;;;1.20;1.15;;;;;;;11.19;68.45;102766.63;5084630;28;20107;-81
2023/04/17 01:46:28;;;;;;;0.75;0.75;;;;;;;11.16;68.47;102775.44;5093770;28;20036;-81
2023/04/17 01:48:55;;;;;;;0.20;0.20;;;;;;;11.17;68.07;102777.22;5088746;28;20115;-81
2023/04/17 01:51:21;;;;;;;0.93;0.93;;;;;;;11.10;68.34;102772.72;5086344;28;20024;-82
2023/04/17 01:53:47;;;;;;;1.38;1.30;;;;;;;11.08;68.92;102764.78;5094914;28;20055;-82
2023/04/17 01:56:13;;;;;;;0.20;0.20;;;;;;;11.12;68.37;102771.00;5089347;28;20107;-82
2023/04/17 01:58:39;;;;;;;0.20;0.20;;;;;;;11.15;68.42;102768.34;5092538;28;20528;-81
2023/04/17 02:01:05;;;;;;;1.63;0.43;;;;;;;11.18;68.49;102776.34;5090764;28;20122;-82
2023/04/17 02:03:32;;;;;;;0.35;0.35;;;;;;;11.15;69.35;102777.22;5082835;28;20032;-82
2023/04/17 02:05:58;;;;;;;0.10;0.10;;;;;;;11.16;68.76;102772.78;5097649;28;20028;-82
2023/04/17 02:08:25;;;;;;;0.20;0.20;;;;;;;11.18;68.50;102771.06;5092224;28;20029;-82
2023/04/17 02:10:51;;;;;;;0.10;0.10;;;;;;;11.20;69.06;102763.97;5086500;28;20110;-82
2023/04/17 02:13:18;;;;;;;0.20;0.20;;;;;;;11.22;68.38;102767.53;5084246;28;20036;-83
2023/04/17 02:15:44;;;;;;;0.32;0.32;;;;;;;11.20;68.46;102768.41;5084061;28;20024;-82
2023/04/17 02:18:10;;;;;;;2.05;1.95;;;;;;;11.18;68.98;102768.41;5078891;28;20456;-82
2023/04/17 02:20:37;;;;;;;0.63;0.63;;;;;;;11.19;68.38;102767.53;5088270;28;20032;-80
2023/04/17 02:23:04;;;;;;;0.10;0.10;;;;;;;11.17;68.77;102763.97;5097894;28;20028;-81
2023/04/17 02:25:31;;;;;;;0.43;0.43;;;;;;;11.17;68.98;102761.31;5086629;28;20389;-81
2023/04/17 02:27:57;;;;;;;1.95;1.85;;;;;;;11.19;68.56;102758.66;5091329;28;20032;-81
2023/04/17 02:30:25;;;;;;;4.18;0.88;;;;;;;11.18;68.97;102755.13;5083693;28;20020;-80
2023/04/17 02:32:52;;;;;;;0.20;0.20;;;;;;;11.15;69.03;102756.00;5083397;28;20037;-81
2023/04/17 02:35:19;;;;;;;0.38;0.38;;;;;;;11.15;69.03;102761.31;5082746;28;20023;-81
2023/04/17 02:37:46;;;;;;;0.20;0.20;;;;;;;11.18;68.53;102757.78;5080553;28;20430;-81
2023/04/17 02:40:13;;;;;;;0.32;0.32;;;;;;;11.19;69.04;102759.56;5084246;28;20056;-81
2023/04/17 02:42:39;;;;;;;0.10;0.10;;;;;;;11.21;68.76;102760.44;5092458;28;20432;-82
2023/04/17 02:45:06;;;;;;;0.30;0.30;;;;;;;11.24;68.73;102762.22;5088471;28;20023;-81
2023/04/17 02:47:32;;;;;;;0.85;0.85;;;;;;;11.23;68.96;102764.00;5085530;28;20122;-82
2023/04/17 02:49:59;;;;;;;0.20;0.20;;;;;;;11.17;69.07;102758.66;5079649;28;20047;-81
2023/04/17 02:52:26;;;;;;;0.85;0.85;;;;;;;11.18;68.43;102755.13;5087848;28;20036;-83
2023/04/17 02:54:52;;;;;;;0.22;0.22;;;;;;;11.15;68.78;102760.41;5086231;28;20155;-83
2023/04/17 02:57:19;;;;;;;1.92;1.75;;;;;;;11.15;68.91;102761.31;5098799;28;20028;-83
2023/04/17 02:59:45;;;;;;;0.63;0.63;;;;;;;11.16;68.73;102764.84;5094486;28;20020;-83
2023/04/17 03:02:13;;;;;;;1.40;1.40;;;;;;;11.19;68.93;102759.56;5091631;28;20039;-83
2023/04/17 03:04:39;;;;;;;3.20;0.95;;;;;;;11.23;68.57;102763.13;5088194;28;20446;-82
2023/04/17 03:07:05;;;;;;;0.73;0.73;;;;;;;11.12;69.23;102768.34;5099847;28;20107;-83
2023/04/17 03:09:32;;;;;;;0.20;0.20;;;;;;;11.12;69.25;102766.56;5090685;28;20542;-82
2023/04/17 03:11:58;;;;;;;0.17;0.17;;;;;;;11.14;68.81;102767.47;5090068;28;20023;-82
2023/04/17 03:14:25;;;;;;;0.10;0.10;;;;;;;11.10;68.99;102767.44;5091346;28;20028;-83
2023/04/17 03:16:51;;;;;;;0.20;0.20;;;;;;;11.08;69.04;102772.72;5084796;28;20516;-82
2023/04/17 03:19:17;;;;;;;2.15;2.05;;;;;;;11.11;68.72;102767.44;5095273;28;20089;-82
2023/04/17 03:21:43;;;;;;;0.80;0.65;;;;;;;11.07;68.66;102768.28;5093358;28;20103;-82
2023/04/17 03:24:10;;;;;;;0.60;0.60;;;;;;;11.13;68.55;102762.16;5088834;28;20433;-82
2023/04/17 03:26:36;;;;;;;0.30;0.30;;;;;;;11.12;68.53;102766.56;5096193;28;20114;-82
2023/04/17 03:29:02;;;;;;;0.13;0.13;;;;;;;11.15;68.21;102771.00;5092540;28;20064;-83
2023/04/17 03:31:28;;;;;;;0.22;0.22;;;;;;;11.16;68.77;102770.13;5086788;28;20040;-83
2023/04/17 03:33:54;;;;;;;0.20;0.20;;;;;;;11.17;68.65;102764.84;5105057;28;20032;-81
2023/04/17 03:36:20;;;;;;;0.10;0.10;;;;;;;11.15;68.61;102766.59;5094276;28;20016;-82
2023/04/17 03:38:46;;;;;;;0.52;0.52;;;;;;;11.20;68.20;102766.63;5091186;28;20035;-83
2023/04/17 03:41:12;;;;;;;0.30;0.30;;;;;;;11.23;68.30;102774.63;5083717;28;20428;-83
2023/04/17 03:43:39;;;;;;;0.98;0.98;;;;;;;11.18;68.45;102763.09;5088300;28;20040;-83
2023/04/17 03:46:05;;;;;;;3.60;0.90;;;;;;;11.20;68.45;102763.97;5082429;28;20021;-83
2023/04/17 03:48:31;;;;;;;0.10;0.10;;;;;;;11.24;68.50;102765.78;5095693;28;20028;-83
2023/04/17 03:50:57;;;;;;;0.10;0.10;;;;;;;11.26;68.50;102753.41;5088277;28;20028;-82
2023/04/17 03:53:23;;;;;;;0.10;0.10;;;;;;;11.29;68.76;102753.44;5086000;28;20062;-83
2023/04/17 03:55:49;;;;;;;0.10;0.10;;;;;;;11.21;68.72;102760.44;5090229;28;20025;-83
2023/04/17 03:58:15;;;;;;;0.13;0.13;;;;;;;11.20;68.48;102768.41;5097720;28;20032;-83
2023/04/17 04:00:41;;;;;;;0.93;0.93;;;;;;;11.24;68.27;102775.50;5088948;28;20169;-82
2023/04/17 04:03:07;;;;;;;0.10;0.10;;;;;;;11.26;68.17;102766.69;5090703;28;20036;-84
2023/04/17 04:05:33;;;;;;;0.20;0.20;;;;;;;11.18;68.48;102771.06;5092364;28;20028;-84
2023/04/17 04:07:59;;;;;;;0.20;0.15;;;;;;;11.13;68.42;102768.34;5093287;28;20032;-83
2023/04/17 04:10:25;;;;;;;0.95;0.95;;;;;;;11.20;68.50;102763.97;5093546;28;20020;-83
2023/04/17 04:12:51;;;;;;;0.20;0.20;;;;;;;11.23;68.41;102774.63;5091932;28;20036;-83
2023/04/17 04:15:18;;;;;;;0.50;0.50;;;;;;;11.25;68.09;102778.19;5085863;28;20025;-83
2023/04/17 04:17:44;;;;;;;0.10;0.10;;;;;;;11.23;68.13;102771.97;5088946;28;20032;-84
2023/04/17 04:20:10;;;;;;;0.10;0.10;;;;;;;11.26;67.84;102771.97;5090974;28;20035;-83
2023/04/17 04:22:36;;;;;;;0.30;0.30;;;;;;;11.26;68.46;102771.97;5086830;28;20041;-84
2023/04/17 04:25:02;;;;;;;1.30;1.20;;;;;;;11.26;68.73;102768.44;5092497;28;20028;-85
2023/04/17 04:27:31;;;;;;;0.65;0.65;;;;;;;11.27;68.19;102771.09;5097813;28;20024;-83
2023/04/17 04:30:00;;;;;;;0.10;0.10;;;;;;;11.33;68.48;102764.97;5090499;28;20050;-82
2023/04/17 04:32:27;;;;;;;0.95;0.95;;;;;;;11.36;68.31;102758.81;5084319;28;20060;-81
2023/04/17 04:34:55;;;;;;;0.10;0.10;;;;;;;11.38;67.92;102767.69;5084396;28;20059;-81
2023/04/17 04:37:28;;;;;;;0.20;0.20;;;;;;;11.38;68.31;102765.03;5085032;28;20032;-81
2023/04/17 04:40:00;;;;;;;0.10;0.10;;;;;;;11.37;67.69;102768.56;5092890;28;20024;-82
2023/04/17 04:42:28;;;;;;;0.17;0.17;;;;;;;11.41;67.86;102778.31;5088876;28;20025;-81
2023/04/17 04:44:54;;;;;;;1.27;0.85;;;;;;;11.44;68.09;102773.00;5089051;28;20047;-82
2023/04/17 04:47:21;;;;;;;0.10;0.10;;;;;;;11.47;68.25;102778.34;5088654;28;20020;-81
2023/04/17 04:49:47;;;;;;;0.10;0.10;;;;;;;11.49;68.11;102781.91;5094554;28;20059;-82
2023/04/17 04:52:13;;;;;;;0.65;0.65;;;;;;;11.49;67.74;102787.22;5093102;28;20400;-82
2023/04/17 04:54:39;;;;;;;3.63;1.23;;;;;;;11.46;68.05;102787.19;5088272;28;20029;-82
2023/04/17 04:57:05;;;;;;;0.10;0.10;;;;;;;11.49;68.19;102787.22;5081122;28;20035;-81
2023/04/17 04:59:31;;;;;;;3.20;0.57;;;;;;;11.48;67.81;102790.75;5085994;28;20402;-80
2023/04/17 05:01:57;;;;;;;0.20;0.20;;;;;;;11.48;67.98;102785.44;5084820;28;20020;-81
2023/04/17 05:04:23;;;;;;;0.10;0.10;;;;;;;11.48;67.76;102793.41;5081813;28;20039;-81
2023/04/17 05:06:50;;;;;;;1.25;1.17;;;;;;;11.49;67.65;102792.53;5084044;28;20028;-79
2023/04/17 05:09:16;;;;;;;0.40;0.40;;;;;;;11.51;67.90;102796.06;5082538;28;20020;-80
2023/04/17 05:11:42;;;;;;;0.10;0.10;;;;;;;11.53;68.23;102796.09;5087156;28;20021;-81
2023/04/17 05:14:08;;;;;;;0.35;0.35;;;;;;;11.54;67.92;102796.09;5089194;28;20036;-82
2023/04/17 05:16:35;;;;;;;0.80;0.80;;;;;;;11.59;67.68;102804.97;5083560;28;20093;-81
2023/04/17 05:19:01;;;;;;;0.20;0.20;;;;;;;11.61;67.79;102807.66;5085165;28;20121;-81
2023/04/17 05:21:27;;;;;;;0.17;0.17;;;;;;;11.61;67.51;102811.22;5079998;28;20020;-81
2023/04/17 05:23:53;;;;;;;0.68;0.68;;;;;;;11.62;67.99;102810.31;5086661;28;20101;-81
2023/04/17 05:26:21;;;;;;;0.47;0.47;;;;;;;11.62;67.78;102812.97;5082767;28;20034;-81
2023/04/17 05:28:47;;;;;;;0.10;0.10;;;;;;;11.64;67.49;102815.66;5086024;28;20078;-81
2023/04/17 05:31:13;;;;;;;0.60;0.60;;;;;;;11.67;67.53;102812.13;5087830;28;20103;-83
2023/04/17 05:33:39;;;;;;;0.40;0.40;;;;;;;11.68;67.84;102809.47;5085777;28;20029;-82
2023/04/17 05:36:06;;;;;;;0.10;0.10;;;;;;;11.69;67.31;102810.34;5089619;28;20024;-82
2023/04/17 05:38:32;;;;;;;0.65;0.65;;;;;;;11.73;67.36;102817.47;5084263;28;20510;-82
2023/04/17 05:41:00;;;;;;;0.10;0.10;;;;;;;11.71;67.15;102813.91;5090557;28;20036;-81
2023/04/17 05:43:26;;;;;;;0.20;0.20;;;;;;;11.72;67.57;102815.69;5092330;28;20032;-85
2023/04/17 05:45:52;;;;;;;0.10;0.10;;;;;;;11.74;67.67;102819.22;5085488;28;20025;-81
2023/04/17 05:48:19;;;;;;;0.93;0.93;;;;;;;11.73;67.08;102820.13;5086632;28;20028;-80
2023/04/17 05:50:46;;;;;;;0.43;0.43;;;;;;;11.75;67.08;102821.00;5088322;28;20021;-80
2023/04/17 05:53:12;;;;;;;0.10;0.10;;;;;;;11.72;67.48;102810.38;5094064;28;20012;-81
2023/04/17 05:55:39;;;;;;;0.20;0.20;;;;;;;11.76;66.76;102818.38;5094130;28;20032;-81
2023/04/17 05:58:05;;;;;;;0.30;0.30;;;;;;;11.80;66.67;102813.97;5096459;28;20059;-81
2023/04/17 06:00:31;;;;;;;0.38;0.38;;;;;;;11.86;67.03;102818.44;5088754;28;20028;-81
2023/04/17 06:02:57;;;;;;;0.45;0.45;;;;;;;11.93;67.17;102814.94;5094555;28;20032;-79
2023/04/17 06:05:23;;;;;;;1.48;1.38;;;;;;;11.97;67.06;102809.69;5090918;28;20087;-80
2023/04/17 06:07:49;;;;;;;0.50;0.50;;;;;;;12.03;67.02;102815.94;5083065;28;20044;-79
2023/04/17 06:10:15;;;;;;;0.35;0.35;;;;;;;12.09;66.77;102818.63;5092851;28;20088;-80
2023/04/17 06:12:41;;;;;;;1.08;1.08;;;;;;;12.12;66.95;102824.84;5084675;28;20513;-82
2023/04/17 06:15:08;;;;;;;0.17;0.17;;;;;;;12.15;66.89;102821.31;5074418;28;22812;-81
2023/04/17 06:17:36;;;;;;;0.10;0.10;;;;;;;12.16;66.69;102823.06;5079575;28;20061;-82
2023/04/17 06:20:06;;;;;;;0.98;0.98;;;;;;;12.14;66.37;102827.50;5081129;28;20039;-82
2023/04/17 06:22:32;;;;;;;1.55;1.45;;;;;;;12.09;66.22;102824.81;5084396;28;20024;-81
2023/04/17 06:24:58;;;;;;;2.25;2.15;;;;;;;12.15;66.78;102831.94;5073375;28;20039;-82
2023/04/17 06:27:24;;;;;;;0.93;0.93;;;;;;;12.19;66.30;102833.72;5073437;28;20028;-81
2023/04/17 06:29:50;;;;;;;0.30;0.30;;;;;;;12.20;66.43;102830.19;5085801;28;20082;-80
2023/04/17 06:32:16;;;;;;;0.25;0.25;;;;;;;12.25;66.46;102828.44;5077517;28;20032;-81
2023/04/17 06:34:42;;;;;;;0.95;0.95;;;;;;;12.30;66.35;102834.66;5086856;28;20036;-82
2023/04/17 06:37:08;;;;;;;0.75;0.68;;;;;;;12.28;66.58;102832.88;5076531;28;20036;-81
2023/04/17 06:39:35;;;;;;;0.73;0.73;;;;;;;12.35;66.65;102825.81;5073323;28;20041;-82
2023/04/17 06:42:01;;;;;;;0.63;0.63;;;;;;;12.36;66.20;102825.84;5079055;28;20410;-79
2023/04/17 06:44:27;;;;;;;1.00;1.00;;;;;;;12.44;66.34;102839.16;5074803;28;20439;-79
2023/04/17 06:46:54;;;;;;;0.10;0.10;;;;;;;12.54;66.30;102843.63;5074421;28;20405;-81
2023/04/17 06:49:20;;;;;;;0.10;0.10;;;;;;;12.59;66.05;102844.53;5079406;28;20409;-79
2023/04/17 06:51:46;;;;;;;1.08;1.08;;;;;;;12.66;66.12;102848.09;5082455;28;20021;-80
2023/04/17 06:54:13;;;;;;;3.03;0.95;;;;;;;12.74;65.57;102853.44;5074873;28;20029;-81
2023/04/17 06:56:39;;;;;;;0.13;0.13;;;;;;;12.76;65.58;102856.97;5071900;28;20052;-82
2023/04/17 06:59:06;;;;;;;1.13;1.13;;;;;;;12.77;65.93;102857.00;5074372;28;20033;-83
2023/04/17 07:01:33;;;;;;;0.70;0.70;;;;;;;12.79;65.66;102862.31;5078265;28;20119;-82
2023/04/17 07:04:00;;;;;;;0.52;0.52;;;;;;;12.77;65.16;102869.41;5092547;28;20028;-83
2023/04/17 07:06:27;;;;;;;0.40;0.40;;;;;;;12.76;64.82;102873.84;5082986;28;20055;-83
2023/04/17 07:08:53;;;;;;;1.38;1.00;;;;;;;12.80;65.35;102869.44;5085836;28;20040;-82
2023/04/17 07:11:19;;;;;;;1.58;1.48;;;;;;;12.78;64.82;102871.19;5083199;28;20022;-82
2023/04/17 07:13:45;;;;;;;0.55;0.55;;;;;;;12.78;65.01;102882.72;5084491;28;20558;-82
2023/04/17 07:16:11;;;;;;;1.02;1.02;;;;;;;12.79;65.07;102879.16;5075436;28;20048;-82
2023/04/17 07:18:37;;;;;;;0.50;0.50;;;;;;;12.83;65.05;102884.50;5087078;28;20393;-81
2023/04/17 07:21:03;;;;;;;0.10;0.10;;;;;;;12.80;64.84;102882.72;5074372;28;20016;-80
2023/04/17 07:23:29;;;;;;;0.38;0.38;;;;;;;12.86;64.85;102877.44;5083847;28;20040;-80
2023/04/17 07:25:55;;;;;;;0.52;0.52;;;;;;;12.91;65.36;102877.41;5079928;28;20024;-80
2023/04/17 07:28:22;;;;;;;2.83;1.25;;;;;;;12.94;65.18;102880.09;5085245;28;20028;-80
2023/04/17 07:30:48;;;;;;;0.13;0.13;;;;;;;12.93;65.37;102881.88;5083150;28;20021;-79
2023/04/17 07:33:14;;;;;;;2.70;2.10;;;;;;;13.00;65.17;102877.47;5082348;28;20027;-80
2023/04/17 07:35:42;;;;;;;0.65;0.35;;;;;;;13.04;65.16;102876.56;5084782;28;20036;-81
2023/04/17 07:38:08;;;;;;;1.20;1.20;;;;;;;13.08;65.22;102877.47;5082733;28;20134;-78
2023/04/17 07:40:35;;;;;;;0.10;0.10;;;;;;;13.16;65.49;102878.38;5084434;28;20086;-78
2023/04/17 07:43:01;;;;;;;0.22;0.22;;;;;;;13.18;64.93;102881.91;5088810;28;20055;-79
2023/04/17 07:45:27;;;;;;;0.15;0.15;;;;;;;13.27;65.31;102873.06;5087252;28;20063;-79
2023/04/17 07:47:54;;;;;;;0.70;0.52;;;;;;;13.30;64.44;102880.19;5083057;28;20032;-81
2023/04/17 07:50:20;;;;;;;0.30;0.30;;;;;;;13.40;64.59;102871.34;5091163;28;20170;-81
2023/04/17 07:52:46;;;;;;;0.32;0.32;;;;;;;13.42;64.14;102873.13;5082504;28;20036;-78
2023/04/17 07:55:13;;;;;;;0.45;0.45;;;;;;;13.47;63.76;102873.13;5083535;28;20038;-79
2023/04/17 07:57:41;;;;;;;0.80;0.80;;;;;;;13.42;63.15;102870.47;5082926;28;20037;-79
2023/04/17 08:00:09;;;;;;;1.85;1.25;;;;;;;13.57;63.95;102874.91;5085328;28;20028;-79
2023/04/17 08:02:35;;;;;;;0.20;0.20;;;;;;;13.51;63.28;102871.38;5075180;28;20044;-80
2023/04/17 08:05:04;;;;;;;1.23;0.68;;;;;;;13.61;64.08;102866.91;5082927;28;20028;-80
2023/04/17 08:07:30;;;;;;;0.35;0.35;;;;;;;13.61;63.96;102874.88;5079982;28;20027;-80
2023/04/17 08:09:56;;;;;;;0.35;0.35;;;;;;;13.64;63.71;102874.91;5083762;28;20028;-80
2023/04/17 08:12:22;;;;;;;0.95;0.95;;;;;;;13.70;63.18;102869.56;5079629;28;20025;-80
2023/04/17 08:14:48;;;;;;;0.45;0.45;;;;;;;13.78;63.50;102873.09;5083396;28;20212;-80
2023/04/17 08:17:18;;;;;;;0.73;0.73;;;;;;;13.74;62.72;102884.66;5079833;28;20036;-80
2023/04/17 08:19:44;;;;;;;0.73;0.73;;;;;;;13.66;62.46;102883.78;5089036;28;20085;-82
2023/04/17 08:22:12;;;;;;;0.20;0.20;;;;;;;13.61;63.07;102885.53;5083360;28;20036;-82
2023/04/17 08:24:38;;;;;;;0.10;0.10;;;;;;;13.58;63.08;102898.00;5089047;28;20100;-79
2023/04/17 08:27:06;;;;;;;0.35;0.35;;;;;;;13.59;63.02;102889.13;5084521;28;20032;-79
2023/04/17 08:29:32;;;;;;;0.73;0.73;;;;;;;13.61;63.42;102896.19;5084105;28;20047;-79
2023/04/17 08:31:58;;;;;;;0.75;0.75;;;;;;;13.59;63.00;102898.88;5079615;28;20036;-81
2023/04/17 08:34:24;;;;;;;0.45;0.45;;;;;;;13.58;63.22;102895.34;5088179;28;20028;-81
2023/04/17 08:36:50;;;;;;;0.30;0.30;;;;;;;13.54;62.71;102895.31;5088299;28;20036;-81
2023/04/17 08:39:17;;;;;;;0.20;0.20;;;;;;;13.55;63.41;102897.09;5088817;28;20031;-82
2023/04/17 08:41:50;;;;;;;0.13;0.13;;;;;;;13.56;63.24;102897.09;5089211;28;20551;-83
2023/04/17 08:44:20;;;;;;;0.55;0.55;;;;;;;13.56;63.19;102894.44;5082925;28;20032;-83
2023/04/17 08:46:47;;;;;;;0.60;0.60;;;;;;;13.58;63.50;102892.66;5080506;28;20032;-82
2023/04/17 08:49:14;;;;;;;1.17;1.10;;;;;;;13.62;63.36;102892.66;5085426;28;20021;-83
2023/04/17 08:51:40;;;;;;;0.43;0.43;;;;;;;13.74;63.73;102890.91;5085920;28;20069;-83
2023/04/17 08:54:06;;;;;;;0.65;0.60;;;;;;;13.79;63.40;102893.53;5083033;28;20405;-83
2023/04/17 08:56:32;;;;;;;0.98;0.32;;;;;;;13.83;63.39;102895.34;5085649;28;20223;-83
2023/04/17 08:58:59;;;;;;;0.35;0.35;;;;;;;13.79;62.70;102901.53;5088056;28;20038;-83
2023/04/17 09:01:25;;;;;;;0.30;0.30;;;;;;;13.78;62.60;102899.75;5089940;28;20030;-81
2023/04/17 09:03:51;;;;;;;0.25;0.25;;;;;;;13.78;62.75;102905.06;5087242;28;20025;-82
2023/04/17 09:06:18;;;;;;;0.57;0.57;;;;;;;13.85;62.79;102905.97;5088111;28;20032;-82
2023/04/17 09:08:56;;;;;;;4.35;1.65;;;;;;;13.96;62.62;102903.31;5087553;28;20043;-81
2023/04/17 09:11:23;;;;;;;0.95;0.95;;;;;;;13.99;63.05;102903.28;5090011;28;20389;-81
2023/04/17 09:13:49;;;;;;;1.15;0.90;;;;;;;13.99;62.27;102903.28;5082994;28;20440;-83
2023/04/17 09:16:15;;;;;;;0.70;0.70;;;;;;;14.07;62.30;102914.84;5080550;28;20028;-82
2023/04/17 09:18:42;;;;;;;2.25;1.75;;;;;;;14.15;62.20;102905.03;5086086;28;20370;-81
2023/04/17 09:21:09;;;;;;;1.95;1.52;;;;;;;14.22;61.69;102901.47;5088595;28;20123;-79
2023/04/17 09:23:53;;;;;;;1.17;1.17;;;;;;;14.38;60.53;102910.31;5091020;28;20713;-82
2023/04/17 09:29:12;;;;;;;1.42;1.40;;;;;;;14.63;59.62;102906.66;5062427;28;20218;-81
2023/04/17 09:31:40;;;;;;;0.30;0.30;;;;;;;14.71;60.49;102904.91;5039476;28;20631;-80
2023/04/17 09:34:09;;;;;;;0.20;0.20;;;;;;;14.86;59.48;102894.16;5042231;28;20041;-82
2023/04/17 09:36:37;;;;;;;2.50;0.82;;;;;;;15.08;60.33;102904.72;5044439;28;20041;-82
2023/04/17 09:39:15;;;;;;;0.20;0.20;;;;;;;15.21;59.68;102905.53;5049521;28;20032;-82
2023/04/17 09:41:41;;;;;;;0.73;0.73;;;;;;;15.36;59.38;102899.19;5047886;28;20033;-82
2023/04/17 09:44:08;;;;;;;0.22;0.22;;;;;;;15.53;59.43;102899.06;5050312;28;20044;-82
2023/04/17 09:46:41;;;;;;;0.38;0.38;;;;;;;15.78;59.83;102906.88;5047299;28;20029;-81
2023/04/17 09:49:32;;;;;;;0.35;0.35;;;;;;;15.93;59.05;102900.56;5044996;28;20025;-82
2023/04/17 09:51:59;;;;;;;0.40;0.40;;;;;;;16.14;58.66;102900.31;5042685;28;20037;-81
2023/04/17 09:54:30;;;;;;;0.85;0.85;;;;;;;16.30;57.91;102895.69;5047039;28;20104;-82
2023/04/17 09:56:57;;;;;;;1.63;1.52;;;;;;;16.43;57.89;102900.91;5045819;28;20033;-82
2023/04/17 09:59:24;;;;;;;1.65;1.55;;;;;;;16.49;56.99;102901.72;5048280;28;20133;-82
2023/04/17 10:01:52;;;;;;;1.70;1.58;;;;;;;16.58;57.27;102915.91;5044631;28;20043;-82
2023/04/17 10:04:20;;;;;;;0.20;0.20;;;;;;;16.56;56.70;102907.00;5049239;28;20052;-81
2023/04/17 10:06:46;;;;;;;0.93;0.93;;;;;;;16.45;55.22;102905.34;5043610;28;20430;-81
2023/04/17 10:09:12;;;;;;;0.30;0.30;;;;;;;16.48;57.03;102909.75;5046201;28;20767;-82
2023/04/17 10:11:44;;;;;;;0.22;0.22;;;;;;;16.47;56.06;102906.22;5045030;28;20415;-82
2023/04/17 10:16:52;;;;;;;0.50;0.50;;;;;;;16.59;56.37;102901.63;5086093;28;20351;-82
2023/04/17 10:19:35;;;;;;;0.85;0.85;;;;;;;16.70;54.60;102904.13;5045899;28;20044;-82
2023/04/17 10:27:57;;;;;;;0.65;0.65;;;;;;;16.54;55.78;102908.81;5101766;27;20406;-83
2023/04/17 10:30:35;;;;;;;0.38;0.38;;;;;;;16.54;53.69;102903.47;5102633;28;20057;-83
2023/04/17 10:35:52;;;;;;;0.77;0.77;;;;;;;16.65;53.52;102909.56;5067779;28;20403;-80
2023/04/17 10:38:42;;;;;;;6.65;2.20;;;;;;;16.83;54.14;102905.75;5062878;28;20078;-80
2023/04/17 10:41:09;;;;;;;2.55;1.38;;;;;;;16.75;53.82;102903.19;5059073;28;20094;-82
2023/04/17 10:43:40;;;;;;;0.50;0.50;;;;;;;16.85;54.54;102909.31;5051386;28;20021;-82
2023/04/17 10:46:11;;;;;;;0.32;0.32;;;;;;;16.84;53.65;102906.66;5048286;28;20024;-83
2023/04/17 10:48:46;;;;;;;0.13;0.13;;;;;;;16.88;53.64;102897.66;5047951;28;20026;-85
2023/04/17 10:54:05;;;;;;;1.13;1.13;;;;;;;16.75;53.18;102900.50;5109587;27;20381;-84
2023/04/17 10:56:47;;;;;;;0.30;0.30;;;;;;;16.80;53.28;102906.69;5086094;28;20024;-82
2023/04/17 10:59:16;;;;;;;0.98;0.60;;;;;;;16.78;54.45;102900.44;5082691;28;20036;-82
2023/04/17 11:04:28;;;;;;;1.40;1.38;;;;;;;16.93;54.46;102893.16;5107054;27;1200940;-82
2023/04/17 11:06:54;;;;;;;0.40;0.40;;;;;;;17.00;54.04;102892.19;5113941;27;20046;-82
2023/04/17 11:09:22;;;;;;;5.28;0.60;;;;;;;17.05;52.66;102894.78;5124340;28;20023;-81
2023/04/17 11:11:49;;;;;;;0.22;0.22;;;;;;;17.14;53.07;102892.84;5112767;27;20032;-82
2023/04/17 11:14:17;;;;;;;0.20;0.20;;;;;;;17.20;52.74;102888.31;5111238;28;20516;-82
2023/04/17 11:16:46;;;;;;;1.00;1.00;;;;;;;17.24;53.07;102877.53;5103828;28;20051;-83
2023/04/17 11:19:17;;;;;;;0.35;0.35;;;;;;;17.15;52.17;102880.34;5100845;28;20105;-81
2023/04/17 11:21:46;;;;;;;0.13;0.13;;;;;;;17.10;53.06;102883.09;5097410;28;20039;-81
2023/04/17 11:24:12;;;;;;;0.82;0.82;;;;;;;17.05;52.80;102884.97;5105254;28;20043;-80
2023/04/17 11:26:46;;;;;;;0.10;0.10;;;;;;;17.03;53.39;102883.22;5099903;28;20032;-80
2023/04/17 11:29:17;;;;;;;0.30;0.30;;;;;;;16.94;52.76;102876.19;5095015;28;20040;-80
2023/04/17 11:31:45;;;;;;;0.25;0.25;;;;;;;17.10;53.53;102887.56;5095730;28;20017;-82
2023/04/17 11:34:12;;;;;;;0.30;0.30;;;;;;;17.16;52.98;102887.47;5100377;28;20028;-83
2023/04/17 11:36:38;;;;;;;0.82;0.82;;;;;;;17.21;52.36;102890.06;5106237;28;20469;-81
2023/04/17 11:39:04;;;;;;;1.00;1.00;;;;;;;17.33;53.07;102883.66;5110528;28;20107;-82
2023/04/17 11:41:38;;;;;;;0.50;0.50;;;;;;;17.47;52.79;102887.00;5108627;28;20130;-82
2023/04/17 11:44:08;;;;;;;1.25;1.25;;;;;;;17.59;52.47;102888.59;5097406;28;20031;-81